sensor_id;sensor_type;location;lat;lon;timestamp;pressure;altitude;pressure_sealevel;temperature;humidity
14120;BME280;7138;49.246;9.100;2022-12-07T00:01:20;98858.38;;;5.25;100.00
14120;BME280;7138;49.246;9.100;2022-12-07T00:03:48;98854.81;;;5.20;100.00
14120;BME280;7138;49.246;9.100;2022-12-07T00:06:16;98859.91;;;5.19;100.00
14120;BME280;7138;49.246;9.100;2022-12-07T00:08:42;98853.06;;;5.18;100.00
14120;BME280;7138;49.246;9.100;2022-12-07T00:11:13;98854.88;;;5.22;100.00
14120;BME280;7138;49.246;9.100;2022-12-07T00:13:40;98855.81;;;5.25;100.00
14120;BME280;7138;49.246;9.100;2022-12-07T00:16:10;98855.94;;;5.31;100.00
14120;BME280;7138;49.246;9.100;2022-12-07T00:18:37;98848.31;;;5.34;100.00
14120;BME280;7138;49.246;9.100;2022-12-07T00:21:08;98847.47;;;5.35;100.00
14120;BME280;7138;49.246;9.100;2022-12-07T00:23:34;98845.69;;;5.31;100.00
14120;BME280;7138;49.246;9.100;2022-12-07T00:26:05;98843.94;;;5.30;100.00
14120;BME280;7138;49.246;9.100;2022-12-07T00:28:32;98854.00;;;5.21;100.00
14120;BME280;7138;49.246;9.100;2022-12-07T00:31:05;98844.47;;;5.16;100.00
14120;BME280;7138;49.246;9.100;2022-12-07T00:33:32;98842.66;;;5.12;100.00
14120;BME280;7138;49.246;9.100;2022-12-07T00:36:00;98846.03;;;5.11;100.00
14120;BME280;7138;49.246;9.100;2022-12-07T00:38:28;98846.03;;;5.11;100.00
14120;BME280;7138;49.246;9.100;2022-12-07T00:40:56;98848.53;;;5.08;100.00
14120;BME280;7138;49.246;9.100;2022-12-07T00:43:22;98844.19;;;5.04;100.00
14120;BME280;7138;49.246;9.100;2022-12-07T00:45:49;98846.56;;;4.96;100.00
14120;BME280;7138;49.246;9.100;2022-12-07T00:48:15;98833.72;;;4.94;100.00
14120;BME280;7138;49.246;9.100;2022-12-07T00:50:41;98835.50;;;4.98;100.00
14120;BME280;7138;49.246;9.100;2022-12-07T00:53:07;98837.38;;;5.04;100.00
14120;BME280;7138;49.246;9.100;2022-12-07T00:55:33;98828.00;;;5.06;100.00
14120;BME280;7138;49.246;9.100;2022-12-07T00:57:59;98826.28;;;5.05;100.00
14120;BME280;7138;49.246;9.100;2022-12-07T01:00:24;98824.56;;;5.04;100.00
14120;BME280;7138;49.246;9.100;2022-12-07T01:02:52;98827.94;;;5.03;100.00
14120;BME280;7138;49.246;9.100;2022-12-07T01:05:18;98822.03;;;5.06;100.00
14120;BME280;7138;49.246;9.100;2022-12-07T01:07:44;98833.28;;;5.12;100.00
14120;BME280;7138;49.246;9.100;2022-12-07T01:10:10;98823.97;;;5.16;100.00
14120;BME280;7138;49.246;9.100;2022-12-07T01:12:36;98830.91;;;5.20;100.00
14120;BME280;7138;49.246;9.100;2022-12-07T01:15:02;98835.31;;;5.27;100.00
14120;BME280;7138;49.246;9.100;2022-12-07T01:17:28;98831.94;;;5.29;100.00
14120;BME280;7138;49.246;9.100;2022-12-07T01:19:55;98830.38;;;5.34;100.00
14120;BME280;7138;49.246;9.100;2022-12-07T01:22:21;98830.44;;;5.37;100.00
14120;BME280;7138;49.246;9.100;2022-12-07T01:24:47;98830.47;;;5.39;100.00
14120;BME280;7138;49.246;9.100;2022-12-07T01:27:13;98832.13;;;5.37;100.00
14120;BME280;7138;49.246;9.100;2022-12-07T01:29:39;98821.00;;;5.36;100.00
14120;BME280;7138;49.246;9.100;2022-12-07T01:32:05;98827.91;;;5.39;100.00
14120;BME280;7138;49.246;9.100;2022-12-07T01:34:31;98839.97;;;5.43;100.00
14120;BME280;7138;49.246;9.100;2022-12-07T01:36:59;98837.47;;;5.46;100.00
14120;BME280;7138;49.246;9.100;2022-12-07T01:39:25;98833.16;;;5.45;100.00
14120;BME280;7138;49.246;9.100;2022-12-07T01:41:51;98839.09;;;5.42;100.00
14120;BME280;7138;49.246;9.100;2022-12-07T01:44:20;98840.03;;;5.47;100.00
14120;BME280;7138;49.246;9.100;2022-12-07T01:46:49;98839.19;;;5.47;100.00
14120;BME280;7138;49.246;9.100;2022-12-07T01:49:28;98840.09;;;5.49;100.00
14120;BME280;7138;49.246;9.100;2022-12-07T01:52:07;98827.13;;;5.43;100.00
14120;BME280;7138;49.246;9.100;2022-12-07T01:54:36;98828.91;;;5.45;100.00
14120;BME280;7138;49.246;9.100;2022-12-07T01:57:04;98813.56;;;5.48;100.00
14120;BME280;7138;49.246;9.100;2022-12-07T01:59:33;98808.50;;;5.50;100.00
14120;BME280;7138;49.246;9.100;2022-12-07T02:02:02;98806.72;;;5.47;100.00
14120;BME280;7138;49.246;9.100;2022-12-07T02:04:30;98815.00;;;5.36;100.00
14120;BME280;7138;49.246;9.100;2022-12-07T02:06:56;98827.63;;;5.27;100.00
14120;BME280;7138;49.246;9.100;2022-12-07T02:09:24;98825.03;;;5.25;100.00
14120;BME280;7138;49.246;9.100;2022-12-07T02:11:51;98820.81;;;5.27;100.00
14120;BME280;7138;49.246;9.100;2022-12-07T02:14:17;98817.50;;;5.33;100.00
14120;BME280;7138;49.246;9.100;2022-12-07T02:17:05;98827.94;;;5.40;100.00
14120;BME280;7138;49.246;9.100;2022-12-07T02:19:49;98826.81;;;5.29;100.00
14120;BME280;7138;49.246;9.100;2022-12-07T02:22:51;98829.44;;;5.31;100.00
14120;BME280;7138;49.246;9.100;2022-12-07T02:25:44;98821.81;;;5.35;100.00
14120;BME280;7138;49.246;9.100;2022-12-07T02:28:19;98821.06;;;5.39;100.00
14120;BME280;7138;49.246;9.100;2022-12-07T02:30:58;98813.50;;;5.44;100.00
14120;BME280;7138;49.246;9.100;2022-12-07T02:33:33;98800.69;;;5.44;100.00
14120;BME280;7138;49.246;9.100;2022-12-07T02:36:08;98802.44;;;5.46;100.00
14120;BME280;7138;49.246;9.100;2022-12-07T02:38:43;98815.25;;;5.46;100.00
14120;BME280;7138;49.246;9.100;2022-12-07T02:41:18;98806.69;;;5.46;100.00
14120;BME280;7138;49.246;9.100;2022-12-07T02:43:50;98808.44;;;5.48;100.00
14120;BME280;7138;49.246;9.100;2022-12-07T02:46:22;98808.50;;;5.50;100.00
14120;BME280;7138;49.246;9.100;2022-12-07T02:48:51;98798.31;;;5.55;100.00
14120;BME280;7138;49.246;9.100;2022-12-07T02:51:19;98781.31;;;5.60;100.00
14120;BME280;7138;49.246;9.100;2022-12-07T02:53:45;98764.34;;;5.65;100.00
14120;BME280;7138;49.246;9.100;2022-12-07T02:56:20;98749.81;;;5.65;100.00
14120;BME280;7138;49.246;9.100;2022-12-07T02:59:04;98746.28;;;5.59;100.00
14120;BME280;7138;49.246;9.100;2022-12-07T03:01:49;98753.03;;;5.55;100.00
14120;BME280;7138;49.246;9.100;2022-12-07T03:04:33;98778.25;;;5.35;100.00
14120;BME280;7138;49.246;9.100;2022-12-07T03:07:13;98787.22;;;5.15;100.00
14120;BME280;7138;49.246;9.100;2022-12-07T03:09:50;98786.16;;;5.06;100.00
14120;BME280;7138;49.246;9.100;2022-12-07T03:12:24;98784.47;;;5.06;100.00
14120;BME280;7138;49.246;9.100;2022-12-07T03:15:01;98775.09;;;5.08;100.00
14120;BME280;7138;49.246;9.100;2022-12-07T03:17:37;98781.78;;;5.02;100.00
14120;BME280;7138;49.246;9.100;2022-12-07T03:20:09;98788.75;;;5.07;100.00
14120;BME280;7138;49.246;9.100;2022-12-07T03:22:39;98787.16;;;5.12;100.00
14120;BME280;7138;49.246;9.100;2022-12-07T03:25:11;98780.28;;;5.10;100.00
14120;BME280;7138;49.246;9.100;2022-12-07T03:27:44;98776.84;;;5.09;100.00
14120;BME280;7138;49.246;9.100;2022-12-07T03:30:17;98770.97;;;5.15;100.00
14120;BME280;7138;49.246;9.100;2022-12-07T03:32:53;98763.47;;;5.22;100.00
14120;BME280;7138;49.246;9.100;2022-12-07T03:35:27;98771.84;;;5.15;100.00
14120;BME280;7138;49.246;9.100;2022-12-07T03:37:58;98777.72;;;5.11;100.00
14120;BME280;7138;49.246;9.100;2022-12-07T03:40:33;98784.41;;;5.05;100.00
14120;BME280;7138;49.246;9.100;2022-12-07T03:43:03;98764.44;;;4.90;100.00
14120;BME280;7138;49.246;9.100;2022-12-07T03:45:38;98796.31;;;5.03;100.00
14120;BME280;7138;49.246;9.100;2022-12-07T03:48:16;98794.63;;;5.03;100.00
14120;BME280;7138;49.246;9.100;2022-12-07T03:50:56;98786.19;;;5.07;100.00
14120;BME280;7138;49.246;9.100;2022-12-07T03:53:30;98781.91;;;5.06;100.00
14120;BME280;7138;49.246;9.100;2022-12-07T03:56:01;98777.84;;;5.16;100.00
14120;BME280;7138;49.246;9.100;2022-12-07T03:58:28;98778.00;;;5.23;100.00
14120;BME280;7138;49.246;9.100;2022-12-07T04:00:55;98767.84;;;5.28;100.00
14120;BME280;7138;49.246;9.100;2022-12-07T04:03:23;98772.09;;;5.26;100.00
14120;BME280;7138;49.246;9.100;2022-12-07T04:05:49;98769.34;;;5.18;100.00
14120;BME280;7138;49.246;9.100;2022-12-07T04:08:15;98782.34;;;5.27;100.00
14120;BME280;7138;49.246;9.100;2022-12-07T04:10:40;98775.38;;;5.20;100.00
14120;BME280;7138;49.246;9.100;2022-12-07T04:13:06;98781.50;;;5.27;100.00
14120;BME280;7138;49.246;9.100;2022-12-07T04:15:32;98774.81;;;5.33;100.00
14120;BME280;7138;49.246;9.100;2022-12-07T04:17:58;98779.22;;;5.40;100.00
14120;BME280;7138;49.246;9.100;2022-12-07T04:20:26;98771.66;;;5.46;100.00
14120;BME280;7138;49.246;9.100;2022-12-07T04:22:52;98769.16;;;5.49;100.00
14120;BME280;7138;49.246;9.100;2022-12-07T04:25:17;98773.34;;;5.46;100.00
14120;BME280;7138;49.246;9.100;2022-12-07T04:27:43;98767.38;;;5.45;100.00
14120;BME280;7138;49.246;9.100;2022-12-07T04:30:10;98770.06;;;5.51;100.00
14120;BME280;7138;49.246;9.100;2022-12-07T04:32:36;98775.13;;;5.48;100.00
14120;BME280;7138;49.246;9.100;2022-12-07T04:35:04;98770.78;;;5.46;100.00
14120;BME280;7138;49.246;9.100;2022-12-07T04:37:31;98768.25;;;5.47;100.00
14120;BME280;7138;49.246;9.100;2022-12-07T04:39:57;98763.09;;;5.46;100.00
14120;BME280;7138;49.246;9.100;2022-12-07T04:42:23;98758.66;;;5.37;100.00
14120;BME280;7138;49.246;9.100;2022-12-07T04:44:49;98764.75;;;5.42;100.00
14120;BME280;7138;49.246;9.100;2022-12-07T04:47:14;98767.91;;;5.31;100.00
14120;BME280;7138;49.246;9.100;2022-12-07T04:49:40;98756.59;;;5.21;100.00
14120;BME280;7138;49.246;9.100;2022-12-07T04:52:06;98758.16;;;5.13;100.00
14120;BME280;7138;49.246;9.100;2022-12-07T04:54:33;98767.47;;;5.11;100.00
14120;BME280;7138;49.246;9.100;2022-12-07T04:56:59;98758.16;;;5.13;100.00
14120;BME280;7138;49.246;9.100;2022-12-07T04:59:25;98763.28;;;5.15;100.00
14120;BME280;7138;49.246;9.100;2022-12-07T05:01:51;98759.78;;;5.11;100.00
14120;BME280;7138;49.246;9.100;2022-12-07T05:04:17;98763.09;;;5.06;100.00
14120;BME280;7138;49.246;9.100;2022-12-07T05:06:44;98754.44;;;5.01;100.00
14120;BME280;7138;49.246;9.100;2022-12-07T05:09:09;98754.50;;;5.04;100.00
14120;BME280;7138;49.246;9.100;2022-12-07T05:11:37;98752.75;;;5.01;100.00
14120;BME280;7138;49.246;9.100;2022-12-07T05:14:10;98754.59;;;5.08;100.00
14120;BME280;7138;49.246;9.100;2022-12-07T05:16:37;98743.47;;;5.06;100.00
14120;BME280;7138;49.246;9.100;2022-12-07T05:19:03;98743.47;;;5.08;100.00
14120;BME280;7138;49.246;9.100;2022-12-07T05:21:29;98743.41;;;5.03;100.00
14120;BME280;7138;49.246;9.100;2022-12-07T05:23:55;98755.41;;;5.06;100.00
14120;BME280;7138;49.246;9.100;2022-12-07T05:26:21;98748.53;;;5.05;100.00
14120;BME280;7138;49.246;9.100;2022-12-07T05:28:51;98750.41;;;5.12;100.00
14120;BME280;7138;49.246;9.100;2022-12-07T05:31:17;98748.72;;;5.12;100.00
14120;BME280;7138;49.246;9.100;2022-12-07T05:33:43;98750.47;;;5.15;100.00
14120;BME280;7138;49.246;9.100;2022-12-07T05:36:09;98746.28;;;5.18;100.00
14120;BME280;7138;49.246;9.100;2022-12-07T05:38:35;98743.72;;;5.18;100.00
14120;BME280;7138;49.246;9.100;2022-12-07T05:41:01;98742.84;;;5.18;100.00
14120;BME280;7138;49.246;9.100;2022-12-07T05:43:28;98752.28;;;5.20;100.00
14120;BME280;7138;49.246;9.100;2022-12-07T05:45:55;98739.28;;;5.11;100.00
14120;BME280;7138;49.246;9.100;2022-12-07T05:48:22;98755.66;;;5.16;100.00
14120;BME280;7138;49.246;9.100;2022-12-07T05:50:48;98747.09;;;5.16;100.00
14120;BME280;7138;49.246;9.100;2022-12-07T05:53:14;98752.09;;;5.10;100.00
14120;BME280;7138;49.246;9.100;2022-12-07T05:55:40;98756.28;;;5.06;100.00
14120;BME280;7138;49.246;9.100;2022-12-07T05:58:06;98761.47;;;5.09;100.00
14120;BME280;7138;49.246;9.100;2022-12-07T06:00:50;98762.34;;;5.10;100.00
14120;BME280;7138;49.246;9.100;2022-12-07T06:03:17;98764.09;;;5.12;100.00
14120;BME280;7138;49.246;9.100;2022-12-07T06:05:43;98758.16;;;5.15;100.00
14120;BME280;7138;49.246;9.100;2022-12-07T06:08:09;98759.03;;;5.15;100.00
14120;BME280;7138;49.246;9.100;2022-12-07T06:10:35;98769.22;;;5.14;100.00
14120;BME280;7138;49.246;9.100;2022-12-07T06:13:01;98761.66;;;5.17;100.00
14120;BME280;7138;49.246;9.100;2022-12-07T06:15:26;98761.72;;;5.21;100.00
14120;BME280;7138;49.246;9.100;2022-12-07T06:17:52;98772.81;;;5.20;100.00
14120;BME280;7138;49.246;9.100;2022-12-07T06:20:19;98767.66;;;5.20;100.00
14120;BME280;7138;49.246;9.100;2022-12-07T06:22:45;98765.03;;;5.17;100.00
14120;BME280;7138;49.246;9.100;2022-12-07T06:25:11;98766.97;;;5.26;100.00
14120;BME280;7138;49.246;9.100;2022-12-07T06:27:37;98770.31;;;5.23;100.00
14120;BME280;7138;49.246;9.100;2022-12-07T06:30:05;98772.97;;;5.28;99.71
14120;BME280;7138;49.246;9.100;2022-12-07T06:32:32;98771.25;;;5.27;100.00
14120;BME280;7138;49.246;9.100;2022-12-07T06:34:59;98768.75;;;5.30;100.00
14120;BME280;7138;49.246;9.100;2022-12-07T06:37:26;98762.81;;;5.32;99.22
14120;BME280;7138;49.246;9.100;2022-12-07T06:39:52;98770.63;;;5.38;99.37
14120;BME280;7138;49.246;9.100;2022-12-07T06:42:17;98764.72;;;5.41;99.46
14120;BME280;7138;49.246;9.100;2022-12-07T06:44:43;98772.50;;;5.45;99.10
14120;BME280;7138;49.246;9.100;2022-12-07T06:47:09;98770.75;;;5.44;98.93
14120;BME280;7138;49.246;9.100;2022-12-07T06:49:35;98771.66;;;5.46;98.25
14120;BME280;7138;49.246;9.100;2022-12-07T06:52:01;98768.13;;;5.41;98.89
14120;BME280;7138;49.246;9.100;2022-12-07T06:54:28;98772.47;;;5.44;98.82
14120;BME280;7138;49.246;9.100;2022-12-07T06:56:55;98769.03;;;5.43;98.80
14120;BME280;7138;49.246;9.100;2022-12-07T06:59:21;98756.09;;;5.37;98.54
14120;BME280;7138;49.246;9.100;2022-12-07T07:01:47;98775.06;;;5.45;98.66
14120;BME280;7138;49.246;9.100;2022-12-07T07:04:13;98773.31;;;5.44;98.29
14120;BME280;7138;49.246;9.100;2022-12-07T07:06:39;98775.88;;;5.44;98.32
14120;BME280;7138;49.246;9.100;2022-12-07T07:09:05;98774.91;;;5.38;97.89
14120;BME280;7138;49.246;9.100;2022-12-07T07:11:32;98779.97;;;5.35;97.83
14120;BME280;7138;49.246;9.100;2022-12-07T07:13:58;98783.31;;;5.32;97.83
14120;BME280;7138;49.246;9.100;2022-12-07T07:16:28;98785.81;;;5.29;98.16
14120;BME280;7138;49.246;9.100;2022-12-07T07:18:54;98779.81;;;5.27;98.11
14120;BME280;7138;49.246;9.100;2022-12-07T07:21:20;98778.97;;;5.28;98.57
14120;BME280;7138;49.246;9.100;2022-12-07T07:23:46;98792.47;;;5.20;98.26
14120;BME280;7138;49.246;9.100;2022-12-07T07:26:12;98789.78;;;5.15;98.21
14120;BME280;7138;49.246;9.100;2022-12-07T07:28:39;98785.00;;;4.93;99.24
14120;BME280;7138;49.246;9.100;2022-12-07T07:31:05;98784.56;;;4.73;100.00
14120;BME280;7138;49.246;9.100;2022-12-07T07:33:30;98792.81;;;4.62;100.00
14120;BME280;7138;49.246;9.100;2022-12-07T07:35:56;98787.25;;;4.44;100.00
14120;BME280;7138;49.246;9.100;2022-12-07T07:38:22;98789.75;;;4.40;100.00
14120;BME280;7138;49.246;9.100;2022-12-07T07:40:48;98792.25;;;4.39;100.00
14120;BME280;7138;49.246;9.100;2022-12-07T07:43:14;98796.63;;;4.43;100.00
14120;BME280;7138;49.246;9.100;2022-12-07T07:45:41;98794.00;;;4.41;100.00
14120;BME280;7138;49.246;9.100;2022-12-07T07:48:07;98789.91;;;4.48;100.00
14120;BME280;7138;49.246;9.100;2022-12-07T07:50:33;98801.25;;;4.58;100.00
14120;BME280;7138;49.246;9.100;2022-12-07T07:52:59;98797.00;;;4.58;100.00
14120;BME280;7138;49.246;9.100;2022-12-07T07:55:25;98801.34;;;4.62;100.00
14120;BME280;7138;49.246;9.100;2022-12-07T07:57:51;98805.63;;;4.62;100.00
14120;BME280;7138;49.246;9.100;2022-12-07T08:00:18;98798.84;;;4.65;100.00
14120;BME280;7138;49.246;9.100;2022-12-07T08:02:45;98804.78;;;4.63;100.00
14120;BME280;7138;49.246;9.100;2022-12-07T08:05:13;98809.16;;;4.67;100.00
14120;BME280;7138;49.246;9.100;2022-12-07T08:07:39;98800.72;;;4.71;100.00
14120;BME280;7138;49.246;9.100;2022-12-07T08:10:07;98801.69;;;4.76;100.00
14120;BME280;7138;49.246;9.100;2022-12-07T08:12:36;98805.22;;;4.81;100.00
14120;BME280;7138;49.246;9.100;2022-12-07T08:15:04;98797.66;;;4.85;100.00
14120;BME280;7138;49.246;9.100;2022-12-07T08:17:30;98805.22;;;4.81;100.00
14120;BME280;7138;49.246;9.100;2022-12-07T08:19:57;98769.56;;;4.53;100.00
14120;BME280;7138;49.246;9.100;2022-12-07T08:22:23;98817.00;;;4.74;100.00
14120;BME280;7138;49.246;9.100;2022-12-07T08:24:48;98808.69;;;4.83;100.00
14120;BME280;7138;49.246;9.100;2022-12-07T08:27:14;98813.84;;;4.84;100.00
14120;BME280;7138;49.246;9.100;2022-12-07T08:29:40;98817.34;;;4.88;100.00
14120;BME280;7138;49.246;9.100;2022-12-07T08:32:06;98816.59;;;4.92;100.00
14120;BME280;7138;49.246;9.100;2022-12-07T08:34:32;98813.31;;;4.97;100.00
14120;BME280;7138;49.246;9.100;2022-12-07T08:36:59;98814.25;;;5.01;100.00
14120;BME280;7138;49.246;9.100;2022-12-07T08:39:25;98814.38;;;5.07;100.00
14120;BME280;7138;49.246;9.100;2022-12-07T08:41:51;98808.59;;;5.16;100.00
14120;BME280;7138;49.246;9.100;2022-12-07T08:44:17;98809.47;;;5.18;100.00
14120;BME280;7138;49.246;9.100;2022-12-07T08:46:48;98808.66;;;5.19;100.00
14120;BME280;7138;49.246;9.100;2022-12-07T08:49:21;98810.34;;;5.17;100.00
14120;BME280;7138;49.246;9.100;2022-12-07T08:51:48;98800.94;;;5.17;100.00
14120;BME280;7138;49.246;9.100;2022-12-07T08:54:18;98805.28;;;5.21;100.00
14120;BME280;7138;49.246;9.100;2022-12-07T08:56:45;98805.41;;;5.26;100.00
14120;BME280;7138;49.246;9.100;2022-12-07T08:59:17;98803.00;;;5.33;100.00
14120;BME280;7138;49.246;9.100;2022-12-07T09:01:43;98801.31;;;5.35;100.00
14120;BME280;7138;49.246;9.100;2022-12-07T09:04:09;98806.56;;;5.41;100.00
14120;BME280;7138;49.246;9.100;2022-12-07T09:06:35;98804.22;;;5.50;100.00
14120;BME280;7138;49.246;9.100;2022-12-07T09:09:02;98801.75;;;5.55;100.00
14120;BME280;7138;49.246;9.100;2022-12-07T09:11:29;98806.06;;;5.58;100.00
14120;BME280;7138;49.246;9.100;2022-12-07T09:13:56;98797.50;;;5.57;100.00
14120;BME280;7138;49.246;9.100;2022-12-07T09:16:22;98801.88;;;5.61;100.00
14120;BME280;7138;49.246;9.100;2022-12-07T09:18:48;98796.75;;;5.61;100.00
14120;BME280;7138;49.246;9.100;2022-12-07T09:21:14;98810.50;;;5.65;100.00
14120;BME280;7138;49.246;9.100;2022-12-07T09:23:42;98803.81;;;5.73;100.00
14120;BME280;7138;49.246;9.100;2022-12-07T09:26:08;98798.00;;;5.81;100.00
14120;BME280;7138;49.246;9.100;2022-12-07T09:28:35;98798.38;;;5.98;100.00
14120;BME280;7138;49.246;9.100;2022-12-07T09:31:03;98795.16;;;6.10;100.00
14120;BME280;7138;49.246;9.100;2022-12-07T09:33:28;98792.00;;;6.23;100.00
14120;BME280;7138;49.246;9.100;2022-12-07T09:35:54;98799.75;;;6.27;100.00
14120;BME280;7138;49.246;9.100;2022-12-07T09:38:20;98796.25;;;6.24;100.00
14120;BME280;7138;49.246;9.100;2022-12-07T09:40:47;98795.44;;;6.25;99.69
14120;BME280;7138;49.246;9.100;2022-12-07T09:43:15;98792.06;;;6.27;99.66
14120;BME280;7138;49.246;9.100;2022-12-07T09:45:45;98798.13;;;6.32;100.00
14120;BME280;7138;49.246;9.100;2022-12-07T09:48:18;98796.47;;;6.34;99.38
14120;BME280;7138;49.246;9.100;2022-12-07T09:50:47;98789.44;;;6.24;98.68
14120;BME280;7138;49.246;9.100;2022-12-07T09:53:19;98804.88;;;6.27;100.00
14120;BME280;7138;49.246;9.100;2022-12-07T09:55:46;98799.03;;;6.36;100.00
14120;BME280;7138;49.246;9.100;2022-12-07T09:58:20;98793.91;;;6.36;100.00
14120;BME280;7138;49.246;9.100;2022-12-07T10:00:50;98794.84;;;6.39;99.93
14120;BME280;7138;49.246;9.100;2022-12-07T10:03:16;98797.25;;;6.30;99.22
14120;BME280;7138;49.246;9.100;2022-12-07T10:05:47;98799.69;;;6.23;97.80
14120;BME280;7138;49.246;9.100;2022-12-07T10:08:14;98802.66;;;5.99;98.25
14120;BME280;7138;49.246;9.100;2022-12-07T10:10:44;98794.84;;;5.93;100.00
14120;BME280;7138;49.246;9.100;2022-12-07T10:13:12;98797.66;;;6.07;100.00
14120;BME280;7138;49.246;9.100;2022-12-07T10:15:44;98784.50;;;5.88;98.97
14120;BME280;7138;49.246;9.100;2022-12-07T10:18:26;98785.66;;;6.05;100.00
14120;BME280;7138;49.246;9.100;2022-12-07T10:21:06;98779.72;;;6.07;100.00
14120;BME280;7138;49.246;9.100;2022-12-07T10:23:36;98788.13;;;5.99;100.00
14120;BME280;7138;49.246;9.100;2022-12-07T10:26:27;98795.09;;;6.07;100.00
14120;BME280;7138;49.246;9.100;2022-12-07T10:28:54;98779.66;;;6.05;100.00
14120;BME280;7138;49.246;9.100;2022-12-07T10:31:23;98765.13;;;6.04;100.00
14120;BME280;7138;49.246;9.100;2022-12-07T10:33:53;98768.72;;;6.15;100.00
14120;BME280;7138;49.246;9.100;2022-12-07T10:36:24;98767.16;;;6.23;99.13
14120;BME280;7138;49.246;9.100;2022-12-07T10:38:53;98767.91;;;6.16;99.28
14120;BME280;7138;49.246;9.100;2022-12-07T10:41:24;98764.53;;;6.20;99.96
14120;BME280;7138;49.246;9.100;2022-12-07T10:43:53;98758.72;;;6.29;99.41
14120;BME280;7138;49.246;9.100;2022-12-07T10:46:57;98756.22;;;6.33;99.07
14120;BME280;7138;49.246;9.100;2022-12-07T10:50:08;98761.28;;;6.30;99.21
14120;BME280;7138;49.246;9.100;2022-12-07T10:53:07;98760.28;;;6.21;98.48
14120;BME280;7138;49.246;9.100;2022-12-07T10:59:07;98753.59;;;6.30;100.00
14120;BME280;7138;49.246;9.100;2022-12-07T11:01:46;98737.41;;;6.34;99.50
14120;BME280;7138;49.246;9.100;2022-12-07T11:04:30;98746.28;;;6.53;100.00
14120;BME280;7138;49.246;9.100;2022-12-07T11:07:10;98739.97;;;6.34;98.57
14120;BME280;7138;49.246;9.100;2022-12-07T11:10:00;98743.47;;;6.39;99.42
14120;BME280;7138;49.246;9.100;2022-12-07T11:12:47;98742.72;;;6.45;99.11
14120;BME280;7138;49.246;9.100;2022-12-07T11:15:24;98746.78;;;6.32;98.71
14120;BME280;7138;49.246;9.100;2022-12-07T11:17:59;98741.69;;;6.35;96.97
14120;BME280;7138;49.246;9.100;2022-12-07T11:20:44;98744.00;;;6.19;98.14
14120;BME280;7138;49.246;9.100;2022-12-07T11:23:42;98745.06;;;6.31;97.58
14120;BME280;7138;49.246;9.100;2022-12-07T11:26:23;98738.25;;;6.33;97.99
14120;BME280;7138;49.246;9.100;2022-12-07T11:29:27;98736.41;;;6.26;97.15
14120;BME280;7138;49.246;9.100;2022-12-07T11:32:10;98738.84;;;6.19;97.80
14120;BME280;7138;49.246;9.100;2022-12-07T11:34:50;98730.38;;;6.24;97.30
14120;BME280;7138;49.246;9.100;2022-12-07T11:37:28;98727.03;;;6.28;98.32
14120;BME280;7138;49.246;9.100;2022-12-07T11:40:02;98720.22;;;6.29;98.68
14120;BME280;7138;49.246;9.100;2022-12-07T11:42:34;98719.50;;;6.37;99.27
14120;BME280;7138;49.246;9.100;2022-12-07T11:45:14;98718.84;;;6.50;99.39
14120;BME280;7138;49.246;9.100;2022-12-07T11:47:47;98719.81;;;6.58;98.73
14120;BME280;7138;49.246;9.100;2022-12-07T11:50:33;98710.66;;;6.74;98.26
14120;BME280;7138;49.246;9.100;2022-12-07T11:53:10;98709.00;;;6.79;98.41
14120;BME280;7138;49.246;9.100;2022-12-07T11:55:47;98707.94;;;6.65;97.29
14120;BME280;7138;49.246;9.100;2022-12-07T11:58:37;98707.84;;;6.60;97.24
14120;BME280;7138;49.246;9.100;2022-12-07T12:01:21;98705.31;;;6.62;97.46
14120;BME280;7138;49.246;9.100;2022-12-07T12:03:52;98700.41;;;6.77;98.15
14120;BME280;7138;49.246;9.100;2022-12-07T12:06:20;98697.81;;;6.76;97.15
14120;BME280;7138;49.246;9.100;2022-12-07T12:08:53;98696.00;;;6.69;95.19
14120;BME280;7138;49.246;9.100;2022-12-07T12:11:41;98690.03;;;6.71;97.14
14120;BME280;7138;49.246;9.100;2022-12-07T12:14:33;98683.28;;;6.78;96.67
14120;BME280;7138;49.246;9.100;2022-12-07T12:17:41;98689.38;;;6.86;95.79
14120;BME280;7138;49.246;9.100;2022-12-07T12:20:23;98686.81;;;6.86;95.58
14120;BME280;7138;49.246;9.100;2022-12-07T12:22:58;98686.00;;;6.88;96.38
14120;BME280;7138;49.246;9.100;2022-12-07T12:25:28;98686.66;;;6.74;94.74
14120;BME280;7138;49.246;9.100;2022-12-07T12:27:59;98682.50;;;6.83;95.84
14120;BME280;7138;49.246;9.100;2022-12-07T12:30:33;98679.78;;;6.73;94.68
14120;BME280;7138;49.246;9.100;2022-12-07T12:33:14;98682.34;;;6.73;95.60
14120;BME280;7138;49.246;9.100;2022-12-07T12:35:42;98679.03;;;6.80;96.58
14120;BME280;7138;49.246;9.100;2022-12-07T12:38:31;98679.19;;;6.93;97.34
14120;BME280;7138;49.246;9.100;2022-12-07T12:41:00;98682.69;;;6.97;96.08
14120;BME280;7138;49.246;9.100;2022-12-07T12:43:49;98681.00;;;7.00;95.39
14120;BME280;7138;49.246;9.100;2022-12-07T12:46:47;98672.56;;;7.09;94.74
14120;BME280;7138;49.246;9.100;2022-12-07T12:49:37;98669.91;;;7.01;94.00
14120;BME280;7138;49.246;9.100;2022-12-07T12:56:14;98669.00;;;6.98;93.10
14120;BME280;7138;49.246;9.100;2022-12-07T12:58:48;98670.72;;;6.99;94.40
14120;BME280;7138;49.246;9.100;2022-12-07T13:01:44;98680.09;;;6.95;93.44
14120;BME280;7138;49.246;9.100;2022-12-07T13:04:38;98674.84;;;6.86;94.05
14120;BME280;7138;49.246;9.100;2022-12-07T13:07:13;98673.06;;;6.81;93.53
14120;BME280;7138;49.246;9.100;2022-12-07T13:09:59;98664.53;;;6.83;94.64
14120;BME280;7138;49.246;9.100;2022-12-07T13:12:25;98662.00;;;6.86;94.38
14120;BME280;7138;49.246;9.100;2022-12-07T13:14:58;98663.81;;;6.95;93.81
14120;BME280;7138;49.246;9.100;2022-12-07T13:18:01;98656.03;;;6.89;94.15
14120;BME280;7138;49.246;9.100;2022-12-07T13:20:50;98656.84;;;6.88;94.28
14120;BME280;7138;49.246;9.100;2022-12-07T13:23:23;98649.25;;;6.95;94.62
14120;BME280;7138;49.246;9.100;2022-12-07T13:26:14;98649.31;;;7.00;94.06
14120;BME280;7138;49.246;9.100;2022-12-07T13:28:44;98648.34;;;6.92;94.78
14120;BME280;7138;49.246;9.100;2022-12-07T13:31:32;98649.94;;;6.81;93.57
14120;BME280;7138;49.246;9.100;2022-12-07T13:34:00;98646.47;;;6.79;93.31
14120;BME280;7138;49.246;9.100;2022-12-07T13:36:30;98642.22;;;6.81;94.96
14120;BME280;7138;49.246;9.100;2022-12-07T13:39:17;98647.25;;;6.73;96.08
14120;BME280;7138;49.246;9.100;2022-12-07T13:41:44;98641.06;;;6.59;94.27
14120;BME280;7138;49.246;9.100;2022-12-07T13:44:13;98642.78;;;6.60;95.76